Flight Track Log - Related Links

Times and Time Zones

All times are in EDT time to prevent confusion due to time zone crossing. See the SWA213 flight status page for this flight to view local times or setup timezone preferences in your user account.

Time Position Orientation Groundspeed Altitude Reporting Facility
EDT Latitude Longitude Course Direction KTS MPH feet Rate Location/Type
Wed 12:06:02 PM 32.7708 -96.7019 119° Southeast 252 290 6,900  Level Fort Worth Center
Wed 12:07:02 PM 32.7681 -96.5981 92° East 281 323 9,900 2,350 Climbing Fort Worth Center
Wed 12:08:02 PM 32.7653 -96.4994 92° East 312 359 11,600 2,050 Climbing Fort Worth Center
Wed 12:09:02 PM 32.7603 -96.3661 93° East 355 409 14,000 2,400 Climbing Fort Worth Center
Wed 12:10:02 PM 32.7486 -96.2525 97° East 372 428 16,400 2,350 Climbing Fort Worth Center
Wed 12:11:02 PM 32.7264 -96.1119 101° East 388 447 18,700 1,950 Climbing Fort Worth Center
Wed 12:12:02 PM 32.7083 -95.9914 100° East 404 465 20,300 1,650 Climbing Fort Worth Center
Wed 12:13:02 PM 32.6836 -95.8411 101° East 418 481 22,000 1,550 Climbing Fort Worth Center
Wed 12:14:02 PM 32.6633 -95.7106 100° East 437 503 23,400 1,700 Climbing Fort Worth Center
Wed 12:15:02 PM 32.6631 -95.5453 90° East 453 521 25,400 1,800 Climbing Fort Worth Center
Wed 12:16:02 PM 32.6733 -95.3994 85° East 453 521 27,000 1,300 Climbing Fort Worth Center
Wed 12:17:02 PM 32.6792 -95.2439 87° East 453 521 28,000 1,200 Climbing Fort Worth Center
Wed 12:18:02 PM 32.6908 -95.0856 85° East 465 535 29,400 1,400 Climbing Fort Worth Center
Wed 12:19:02 PM 32.7003 -94.9300 86° East 471 542 30,800 1,550 Climbing Fort Worth Center
Wed 12:20:02 PM 32.7014 -94.7767 89° East 471 542 32,500 1,100 Climbing Fort Worth Center
Wed 12:21:02 PM 32.6564 -94.6300 110° East 458 527 33,000 250 Climbing Fort Worth Center
Wed 12:22:02 PM 32.5867 -94.4992 122° Southeast 464 534 33,000  Level Fort Worth Center
Wed 12:23:02 PM 32.5217 -94.3978 127° Southeast 464 534 33,000 400 Level Fort Worth Center
Wed 12:24:02 PM 32.4283 -94.2508 127° Southeast 466 536 33,800 1,000 Climbing Fort Worth Center
Wed 12:25:02 PM 32.3500 -94.1256 126° Southeast 471 542 35,000 600 Climbing Fort Worth Center
Wed 12:26:02 PM 32.2758 -94.0056 126° Southeast 471 542 35,000  Level Fort Worth Center
Wed 12:27:02 PM 32.1994 -93.8806 126° Southeast 471 542 35,000  Level Fort Worth Center
Wed 12:29:04 PM 32.0589 -93.6678 128° Southeast 448 516 35,000  Level Houston Center
Wed 12:30:06 PM 31.9700 -93.5283 127° Southeast 445 512 35,000  Level Houston Center
Wed 12:31:09 PM 31.8944 -93.4122 127° Southeast 447 514 35,000  Level Houston Center
Wed 12:32:11 PM 31.8192 -93.2958 127° Southeast 446 513 35,000  Level Houston Center
Wed 12:33:13 PM 31.7431 -93.1811 128° Southeast 448 516 35,000  Level Houston Center
Wed 12:34:15 PM 31.6661 -93.0619 127° Southeast 454 522 35,000  Level Houston Center
Wed 12:35:17 PM 31.5892 -92.9461 128° Southeast 451 519 35,000  Level Houston Center
Wed 12:36:19 PM 31.4978 -92.8047 127° Southeast 452 520 35,000  Level Houston Center
Wed 12:37:21 PM 31.4192 -92.6867 128° Southeast 456 525 35,000  Level Houston Center
Wed 12:38:23 PM 31.3417 -92.5683 127° Southeast 458 527 35,000  Level Houston Center
Wed 12:39:25 PM 31.2631 -92.4494 128° Southeast 459 528 35,000  Level Houston Center
Wed 12:40:27 PM 31.1833 -92.3303 128° Southeast 462 532 35,000  Level Houston Center
Wed 12:41:29 PM 31.1047 -92.2122 128° Southeast 462 532 35,000  Level Houston Center
Wed 12:42:31 PM 31.0092 -92.0692 128° Southeast 463 533 35,000 -629 Level Houston Center
Wed 12:43:33 PM 30.9408 -91.9667 128° Southeast 461 531 33,700 -2,064 Descending Houston Center
Wed 12:44:36 PM 30.8478 -91.8289 128° Southeast 452 520 30,700 -2,544 Descending Houston Center
Wed 12:45:38 PM 30.7719 -91.7167 128° Southeast 444 511 28,400 -2,177 Descending Houston Center
Wed 12:46:40 PM 30.7003 -91.6086 128° Southeast 427 491 26,200 -2,129 Descending Houston Center
Wed 12:47:42 PM 30.6283 -91.5017 128° Southeast 420 483 24,000 -2,129 Descending Houston Center
Wed 12:48:44 PM 30.5525 -91.3903 128° Southeast 415 478 21,800 -2,129 Descending Houston Center
Wed 12:49:46 PM 30.5003 -91.2786 118° Southeast 399 459 19,600 -2,081 Descending Houston Center
Wed 12:50:48 PM 30.4572 -91.1619 113° Southeast 395 455 17,500 -2,129 Descending Houston Center
Wed 12:51:50 PM 30.4167 -91.0500 113° Southeast 382 440 15,200 -2,513 Descending Houston Center
Wed 12:52:45 PM 30.3708 -90.9272 113° Southeast 379 436 12,600 -2,172 Descending Houston Center
Wed 12:53:46 PM 30.3283 -90.8178 114° Southeast 373 429 11,000 -787 Descending Houston Center
Wed 12:54:47 PM 30.2925 -90.7228 114° Southeast 319 367 11,000 -455 Level Houston Center
Wed 12:55:58 PM 30.2544 -90.6222 114° Southeast 314 361 10,000 -1,444 Descending Houston Center
Wed 12:57:00 PM 30.2208 -90.5331 114° Southeast 306 352 7,800 -2,216 Descending Houston Center
Wed 12:57:49 PM 30.1864 -90.4403 113° Southeast 318 366 5,900 -1,636 Descending Houston Center
Wed 12:58:50 PM 30.1525 -90.3575 115° Southeast 275 316 4,800 -1,752 Descending Houston Center
Wed 01:00:06 PM 30.1208 -90.2664 112° Southeast 267 307 1,900 -1,388 Descending Houston Center
Wed 01:00:51 PM 30.1006 -90.2250 120° Southeast 159 183 2,000 97 Climbing Houston Center
Wed 01:01:08 PM 30.0944 -90.2203 146° Southeast 219 252 2,000 -492 Level Houston Center
Wed 01:01:52 PM 30.0631 -90.2239 186° South 134 154 1,500 -677 Descending Houston Center
Wed 01:02:10 PM 30.0558 -90.2269 200° South 167 192 1,300 -985 Descending Houston Center
Wed 01:02:59 PM 30.0175 -90.2403 197° South 144 166 400 -1,102 Descending Houston Center
Wed 01:05:00 PM 29.9833 -90.2500 101° East  Level FlightAware Approximate
Wed 01:12:00 PM 29.9934 -90.2580 101° East  Level Estimated

Login

Don't have an account? Register now (free) for customized features, flight alerts, and more!